Terminal Aerodrome Forecast
Issued by NWS

Home | Current Version | Previous Version | Graphics & Text | Print | Product List | Glossary On
Versions: 1 2 3 4 5 6 7 8 9 10 11 12 13 14 15 16 17 18 19 20 21 22 23
000
FTUS43 KABR 180500
TAFATY
TAF
KATY 180526Z 1806/1906 01010KT P6SM OVC011
     FM180800 01008KT P6SM OVC007
     FM181000 03005KT 5SM BR OVC005
     FM181500 15006KT P6SM OVC008
     FM181800 16010KT P6SM OVC015
     FM182000 18015KT P6SM SKC=

USA.gov is the U.S. government's official web portal to all federal, state and local government web resources and services.